createdAt,value
2018-08-04T00:01:32.986Z,24.00
2018-08-04T00:04:02.073Z,23.90
2018-08-04T00:06:33.885Z,23.90
2018-08-04T00:09:03.159Z,23.90
2018-08-04T00:11:32.446Z,23.80
2018-08-04T00:14:01.695Z,23.90
2018-08-04T00:16:30.995Z,23.90
2018-08-04T00:19:00.303Z,23.90
2018-08-04T00:21:29.574Z,23.80
2018-08-04T00:23:59.194Z,23.80
2018-08-04T00:26:34.794Z,23.80
2018-08-04T00:29:04.216Z,23.80
2018-08-04T00:31:34.098Z,23.70
2018-08-04T00:34:03.444Z,23.60
2018-08-04T00:36:32.737Z,23.60
2018-08-04T00:39:02.014Z,23.50
2018-08-04T00:41:31.294Z,23.50
2018-08-04T00:44:00.580Z,23.50
2018-08-04T00:46:29.930Z,23.50
2018-08-04T00:48:59.198Z,23.40
2018-08-04T00:51:28.363Z,23.40
2018-08-04T00:53:57.646Z,23.40
2018-08-04T00:56:26.966Z,23.30
2018-08-04T00:58:56.278Z,23.30
2018-08-04T01:01:25.668Z,23.10
2018-08-04T01:03:55.076Z,23.00
2018-08-04T01:09:17.244Z,22.90
2018-08-04T01:11:46.511Z,22.80
2018-08-04T01:14:15.772Z,22.70
2018-08-04T01:16:44.934Z,22.60
2018-08-04T01:19:14.304Z,22.70
2018-08-04T01:21:43.554Z,22.80
2018-08-04T01:24:12.822Z,22.80
2018-08-04T01:26:42.107Z,22.80
2018-08-04T01:29:11.431Z,22.80
2018-08-04T01:31:40.728Z,22.70
2018-08-04T01:34:09.884Z,22.60
2018-08-04T01:36:39.200Z,22.40
2018-08-04T01:39:09.890Z,22.20
2018-08-04T01:44:07.980Z,22.10
2018-08-04T01:46:37.278Z,22.10
2018-08-04T01:49:06.626Z,22.20
2018-08-04T01:51:35.876Z,22.30
2018-08-04T01:54:05.215Z,22.30
2018-08-04T01:56:34.540Z,22.20
2018-08-04T01:59:03.881Z,22.20
2018-08-04T02:01:33.208Z,22.20
2018-08-04T02:04:02.448Z,22.20
2018-08-04T02:06:31.713Z,22.10
2018-08-04T02:09:00.974Z,22.20
2018-08-04T02:11:30.144Z,22.20
2018-08-04T02:14:11.217Z,22.20
2018-08-04T02:16:40.462Z,22.30
2018-08-04T02:19:09.687Z,22.30
2018-08-04T02:21:39.016Z,22.40
2018-08-04T02:24:08.366Z,22.30
2018-08-04T02:26:37.663Z,22.30
2018-08-04T02:29:06.975Z,22.20
2018-08-04T02:31:42.692Z,22.20
2018-08-04T02:34:11.887Z,22.20
2018-08-04T02:36:41.218Z,22.20
2018-08-04T02:41:39.592Z,22.20
2018-08-04T02:44:08.887Z,22.10
2018-08-04T02:46:38.231Z,22.10
2018-08-04T02:49:07.630Z,22.10
2018-08-04T02:51:36.860Z,22.10
2018-08-04T02:54:06.146Z,22.00
2018-08-04T02:56:35.364Z,22.10
2018-08-04T02:59:04.631Z,22.00
2018-08-04T03:01:34.043Z,22.00
2018-08-04T03:04:03.437Z,22.00
2018-08-04T03:06:32.711Z,22.00
2018-08-04T03:09:02.013Z,22.00
2018-08-04T03:11:31.328Z,22.00
2018-08-04T03:14:00.619Z,21.90
2018-08-04T03:16:29.900Z,21.90
2018-08-04T03:21:30.912Z,21.70
2018-08-04T03:24:00.275Z,21.70
2018-08-04T03:26:29.572Z,21.50
2018-08-04T03:28:58.848Z,21.50
2018-08-04T03:31:28.156Z,21.50
2018-08-04T03:33:57.374Z,21.50
2018-08-04T03:36:26.613Z,21.50
2018-08-04T03:38:55.883Z,21.50
2018-08-04T03:41:25.180Z,21.50
2018-08-04T03:43:54.435Z,21.50
2018-08-04T03:46:23.778Z,21.50
2018-08-04T03:48:53.067Z,21.40
2018-08-04T03:53:51.091Z,21.10
2018-08-04T03:56:20.302Z,21.10
2018-08-04T03:58:49.558Z,21.10
2018-08-04T04:01:18.924Z,21.20
2018-08-04T04:03:48.173Z,21.10
2018-08-04T04:06:17.500Z,21.00
2018-08-04T04:08:46.795Z,21.00
2018-08-04T04:11:16.167Z,20.80
2018-08-04T04:13:45.459Z,20.70
2018-08-04T04:16:14.711Z,20.70
2018-08-04T04:18:43.971Z,20.70
2018-08-04T04:21:13.238Z,20.70
2018-08-04T04:23:42.386Z,20.60
2018-08-04T04:26:11.441Z,20.60
2018-08-04T04:28:40.454Z,20.60
2018-08-04T04:31:09.569Z,20.60
2018-08-04T04:33:38.585Z,20.70
2018-08-04T04:36:07.619Z,20.70
2018-08-04T04:38:36.660Z,20.70
2018-08-04T04:41:05.722Z,20.70
2018-08-04T04:43:34.778Z,20.80
2018-08-04T04:46:03.813Z,20.80
2018-08-04T04:48:32.924Z,20.80
2018-08-04T04:51:02.019Z,20.90
2018-08-04T04:53:31.071Z,20.90
2018-08-04T04:56:00.188Z,20.90
2018-08-04T04:58:29.246Z,20.90
2018-08-04T05:00:58.294Z,20.90
2018-08-04T05:03:27.326Z,20.80
2018-08-04T05:05:56.405Z,20.80
2018-08-04T05:08:45.354Z,20.90
2018-08-04T05:11:14.386Z,20.90
2018-08-04T05:13:43.442Z,20.80
2018-08-04T05:16:12.482Z,20.90
2018-08-04T05:18:41.574Z,20.90
2018-08-04T05:21:10.609Z,20.90
2018-08-04T05:23:39.686Z,20.90
2018-08-04T05:26:08.712Z,21.00
2018-08-04T05:28:37.752Z,21.10
2018-08-04T05:31:07.135Z,21.20
2018-08-04T05:33:36.198Z,21.30
2018-08-04T05:36:05.314Z,21.40
2018-08-04T05:38:34.338Z,21.50
2018-08-04T05:41:03.434Z,21.60
2018-08-04T05:43:32.524Z,21.70
2018-08-04T05:46:01.543Z,21.80
2018-08-04T05:48:30.587Z,21.90
2018-08-04T05:50:59.597Z,22.00
2018-08-04T05:53:28.698Z,22.00
2018-08-04T05:55:57.993Z,22.10
2018-08-04T05:58:27.065Z,22.20
2018-08-04T06:00:56.109Z,22.30
2018-08-04T06:03:25.235Z,22.40
2018-08-04T06:05:54.407Z,22.50
2018-08-04T06:08:23.428Z,22.60
2018-08-04T06:10:52.462Z,22.70
2018-08-04T06:13:21.501Z,22.80
2018-08-04T06:15:50.508Z,22.80
2018-08-04T06:18:19.561Z,22.90
2018-08-04T06:20:48.582Z,23.00
2018-08-04T06:23:17.618Z,23.10
2018-08-04T06:25:46.660Z,23.30
2018-08-04T06:28:15.837Z,23.40
2018-08-04T06:30:44.894Z,23.50
2018-08-04T06:33:13.928Z,23.70
2018-08-04T06:35:42.985Z,23.90
2018-08-04T06:38:12.035Z,24.10
2018-08-04T06:40:41.099Z,24.40
2018-08-04T06:43:10.158Z,24.60
2018-08-04T06:45:39.164Z,24.80
2018-08-04T06:48:08.225Z,25.10
2018-08-04T06:50:37.269Z,25.20
2018-08-04T06:53:06.303Z,25.40
2018-08-04T06:55:35.378Z,25.60
2018-08-04T06:58:04.394Z,25.80
2018-08-04T07:00:33.452Z,25.80
2018-08-04T07:03:02.557Z,25.90
2018-08-04T07:05:31.552Z,25.90
2018-08-04T07:08:00.607Z,26.00
2018-08-04T07:10:29.654Z,26.20
2018-08-04T07:12:58.709Z,26.40
2018-08-04T07:15:27.758Z,26.70
2018-08-04T07:17:56.761Z,26.80
2018-08-04T07:20:25.881Z,27.10
2018-08-04T07:22:54.943Z,27.30
2018-08-04T07:25:24.019Z,27.50
2018-08-04T07:27:53.057Z,27.70
2018-08-04T07:30:22.094Z,28.30
2018-08-04T07:32:51.129Z,28.30
2018-08-04T07:35:20.129Z,28.60
2018-08-04T07:37:49.174Z,29.00
2018-08-04T07:40:18.279Z,29.10
2018-08-04T07:42:47.313Z,29.20
2018-08-04T07:45:16.360Z,29.40
2018-08-04T07:47:45.618Z,29.40
2018-08-04T07:52:43.384Z,29.40
2018-08-04T07:55:12.403Z,29.40
2018-08-04T07:57:41.510Z,29.80
2018-08-04T08:00:10.937Z,30.30
2018-08-04T08:02:40.002Z,30.60
2018-08-04T08:05:09.090Z,30.70
2018-08-04T08:07:38.137Z,30.80
2018-08-04T08:10:07.484Z,30.70
2018-08-04T08:12:36.489Z,31.00
2018-08-04T08:15:07.322Z,30.90
2018-08-04T08:17:36.518Z,30.90
2018-08-04T08:20:06.310Z,31.30
2018-08-04T08:22:39.201Z,31.60
2018-08-04T08:25:08.920Z,31.90
2018-08-04T08:27:38.501Z,32.20
2018-08-04T08:30:13.375Z,32.30
2018-08-04T08:32:42.544Z,32.60
2018-08-04T08:35:12.090Z,32.90
2018-08-04T08:37:41.697Z,33.10
2018-08-04T08:40:10.901Z,33.50
2018-08-04T08:42:39.998Z,33.80
2018-08-04T08:45:10.297Z,34.20
2018-08-04T08:47:39.446Z,34.50
2018-08-04T08:50:10.971Z,34.70
2018-08-04T08:52:40.372Z,35.00
2018-08-04T08:55:10.050Z,35.30
2018-08-04T08:57:39.182Z,35.60
2018-08-04T09:00:13.100Z,35.60
2018-08-04T09:02:42.245Z,35.90
2018-08-04T09:05:11.567Z,36.20
2018-08-04T09:07:40.782Z,36.30
2018-08-04T09:10:12.628Z,36.80
2018-08-04T09:12:42.451Z,36.80
2018-08-04T09:15:11.521Z,36.80
2018-08-04T09:17:40.659Z,37.10
2018-08-04T09:20:10.830Z,37.40
2018-08-04T09:22:40.034Z,37.50
2018-08-04T09:25:09.582Z,37.50
2018-08-04T09:27:39.366Z,37.70
2018-08-04T09:30:10.994Z,37.80
2018-08-04T09:32:40.624Z,37.80
2018-08-04T09:35:09.690Z,37.90
2018-08-04T09:37:38.777Z,37.60
2018-08-04T09:40:10.212Z,37.70
2018-08-04T09:42:39.342Z,37.60
2018-08-04T09:45:09.507Z,38.20
2018-08-04T09:47:39.189Z,38.60
2018-08-04T09:50:10.141Z,38.60
2018-08-04T09:52:39.505Z,38.30
2018-08-04T09:55:09.661Z,38.20
2018-08-04T09:57:39.282Z,38.40
2018-08-04T10:00:15.322Z,38.50
2018-08-04T10:02:44.409Z,38.40
2018-08-04T10:06:37.782Z,38.70
2018-08-04T10:09:09.645Z,39.00
2018-08-04T10:11:38.793Z,38.80
2018-08-04T10:14:07.885Z,39.10
2018-08-04T10:16:36.967Z,39.70
2018-08-04T10:19:06.053Z,40.00
2018-08-04T10:21:35.135Z,40.20
2018-08-04T10:24:04.297Z,39.90
2018-08-04T10:26:34.853Z,40.60
2018-08-04T10:29:03.948Z,40.70
2018-08-04T10:31:33.009Z,40.80
2018-08-04T10:34:02.084Z,41.00
2018-08-04T10:38:59.768Z,40.80
2018-08-04T10:41:28.870Z,40.80
2018-08-04T10:43:58.004Z,40.80
2018-08-04T10:46:27.081Z,41.00
2018-08-04T10:48:56.153Z,40.90
2018-08-04T10:51:25.217Z,41.20
2018-08-04T10:53:54.299Z,41.40
2018-08-04T10:56:23.365Z,40.80
2018-08-04T10:58:52.430Z,41.20
2018-08-04T11:01:21.496Z,41.70
2018-08-04T11:03:50.589Z,41.90
2018-08-04T11:06:19.679Z,41.30
2018-08-04T11:08:48.773Z,41.30
2018-08-04T11:11:17.927Z,41.20
2018-08-04T11:13:47.018Z,41.10
2018-08-04T11:16:16.078Z,41.10
2018-08-04T11:18:45.164Z,41.20
2018-08-04T11:26:11.450Z,39.30
2018-08-04T11:28:40.509Z,39.30
2018-08-04T11:31:09.606Z,38.50
2018-08-04T11:33:38.653Z,38.50
2018-08-04T11:36:07.811Z,38.50
2018-08-04T11:38:36.874Z,38.30
2018-08-04T11:41:06.276Z,38.40
2018-08-04T11:46:03.948Z,38.90
2018-08-04T11:48:33.059Z,39.00
2018-08-04T11:51:02.149Z,39.00
2018-08-04T11:53:31.263Z,39.50
2018-08-04T11:56:00.559Z,39.60
2018-08-04T11:58:29.820Z,39.60
2018-08-04T12:00:59.255Z,39.90
2018-08-04T12:03:28.556Z,39.60
2018-08-04T12:05:57.884Z,39.20
2018-08-04T12:08:28.131Z,39.70
2018-08-04T12:10:57.499Z,39.80
2018-08-04T12:15:55.683Z,40.40
2018-08-04T12:18:24.955Z,40.80
2018-08-04T12:20:54.245Z,40.10
2018-08-04T12:23:23.649Z,40.30
2018-08-04T12:25:52.975Z,40.60
2018-08-04T12:28:22.417Z,40.70
2018-08-04T12:30:51.663Z,41.00
2018-08-04T12:33:21.002Z,41.40
2018-08-04T12:35:50.296Z,41.40
2018-08-04T12:38:19.533Z,41.50
2018-08-04T12:40:48.891Z,41.30
2018-08-04T12:43:18.278Z,41.00
2018-08-04T12:45:47.598Z,41.00
2018-08-04T12:48:16.995Z,40.60
2018-08-04T12:50:46.308Z,40.60
2018-08-04T12:53:15.632Z,40.60
2018-08-04T13:00:42.542Z,39.80
2018-08-04T13:05:40.591Z,39.10
2018-08-04T13:08:09.844Z,39.10
2018-08-04T13:10:39.218Z,38.40
2018-08-04T13:13:08.487Z,38.00
2018-08-04T13:15:37.843Z,37.80
2018-08-04T13:18:07.144Z,38.00
2018-08-04T13:23:05.299Z,38.90
2018-08-04T13:25:34.613Z,38.80
2018-08-04T13:28:25.879Z,39.30
2018-08-04T13:30:54.965Z,39.70
2018-08-04T13:33:24.055Z,39.70
2018-08-04T13:35:53.154Z,40.10
2018-08-04T13:38:22.246Z,40.10
2018-08-04T13:40:51.303Z,40.10
2018-08-04T13:43:20.394Z,40.20
2018-08-04T13:45:49.470Z,40.50
2018-08-04T13:48:18.856Z,40.90
2018-08-04T13:50:47.970Z,41.50
2018-08-04T13:55:46.382Z,41.50
2018-08-04T13:58:15.482Z,41.60
2018-08-04T14:32:57.114Z,40.00
2018-08-04T14:35:26.197Z,39.60
2018-08-04T14:37:55.265Z,39.40
2018-08-04T14:40:24.377Z,39.30
2018-08-04T14:42:53.444Z,38.70
2018-08-04T14:45:22.541Z,38.50
2018-08-04T14:47:51.614Z,38.50
2018-08-04T14:50:20.654Z,38.30
2018-08-04T14:52:49.705Z,38.20
2018-08-04T14:55:18.742Z,38.10
2018-08-04T14:57:47.825Z,38.10
2018-08-04T15:00:16.912Z,38.20
2018-08-04T15:02:45.946Z,38.00
2018-08-04T15:05:15.030Z,38.10
2018-08-04T15:07:44.095Z,37.70
2018-08-04T15:10:13.238Z,37.80
2018-08-04T15:12:42.388Z,37.70
2018-08-04T15:15:11.511Z,37.40
2018-08-04T15:17:40.621Z,37.40
2018-08-04T15:20:09.740Z,37.40
2018-08-04T15:22:38.802Z,37.40
2018-08-04T15:25:08.350Z,37.30
2018-08-04T15:27:37.441Z,37.40
2018-08-04T15:30:06.752Z,37.50
2018-08-04T15:32:35.777Z,37.40
2018-08-04T15:35:04.923Z,37.50
2018-08-04T15:37:35.721Z,37.60
2018-08-04T15:40:04.900Z,37.70
2018-08-04T15:42:33.977Z,37.80
2018-08-04T15:45:03.041Z,37.80
2018-08-04T15:47:32.122Z,37.50
2018-08-04T15:50:01.169Z,37.50
2018-08-04T15:52:30.266Z,37.10
2018-08-04T15:54:59.290Z,37.10
2018-08-04T15:57:28.372Z,37.20
2018-08-04T15:59:57.418Z,37.20
2018-08-04T16:02:26.470Z,37.20
2018-08-04T16:04:55.592Z,37.30
2018-08-04T16:07:24.797Z,37.50
2018-08-04T16:09:53.934Z,37.60
2018-08-04T16:12:23.081Z,37.80
2018-08-04T16:14:52.157Z,37.80
2018-08-04T16:19:50.150Z,37.80
2018-08-04T16:22:19.239Z,37.80
2018-08-04T16:27:16.974Z,38.20
2018-08-04T16:29:46.094Z,38.60
2018-08-04T16:32:15.322Z,38.50
2018-08-04T16:34:44.486Z,38.80
2018-08-04T16:37:13.559Z,39.00
2018-08-04T16:39:42.603Z,39.10
2018-08-04T16:44:40.287Z,38.80
2018-08-04T16:47:09.358Z,38.80
2018-08-04T16:49:38.430Z,39.00
2018-08-04T16:52:07.606Z,39.10
2018-08-04T16:54:36.795Z,39.40
2018-08-04T16:57:06.134Z,39.50
2018-08-04T16:59:35.558Z,39.70
2018-08-04T17:02:04.799Z,39.80
2018-08-04T17:04:34.274Z,39.80
2018-08-04T17:07:03.615Z,39.80
2018-08-04T17:12:01.679Z,39.90
2018-08-04T17:14:30.881Z,40.20
2018-08-04T17:19:28.902Z,40.00
2018-08-04T17:21:58.152Z,40.00
2018-08-04T17:24:27.519Z,39.90
2018-08-04T17:29:25.551Z,39.50
2018-08-04T17:31:54.923Z,39.50
2018-08-04T17:34:24.216Z,39.50
2018-08-04T17:36:53.603Z,39.50
2018-08-04T17:39:23.023Z,38.70
2018-08-04T17:41:52.276Z,38.70
2018-08-04T17:44:21.593Z,38.70
2018-08-04T17:46:50.859Z,38.60
2018-08-04T17:49:20.164Z,38.40
2018-08-04T17:51:49.405Z,38.00
2018-08-04T17:54:18.732Z,37.70
2018-08-04T17:56:48.054Z,37.40
2018-08-04T17:59:17.351Z,37.20
2018-08-04T18:01:46.743Z,36.90
2018-08-04T18:04:16.069Z,36.30
2018-08-04T18:06:45.335Z,36.10
2018-08-04T18:09:14.790Z,36.00
2018-08-04T18:11:44.115Z,36.00
2018-08-04T18:14:13.383Z,35.80
2018-08-04T18:16:42.683Z,35.60
2018-08-04T18:19:12.028Z,35.50
2018-08-04T18:21:41.329Z,35.30
2018-08-04T18:24:10.867Z,35.20
2018-08-04T18:26:40.197Z,35.00
2018-08-04T18:29:09.431Z,34.80
2018-08-04T18:31:38.747Z,34.60
2018-08-04T18:34:08.063Z,34.30
2018-08-04T18:36:37.319Z,34.10
2018-08-04T18:39:08.056Z,34.00
2018-08-04T18:41:37.299Z,33.80
2018-08-04T18:44:06.498Z,33.30
2018-08-04T18:46:35.729Z,33.10
2018-08-04T18:49:05.048Z,32.70
2018-08-04T18:51:34.394Z,32.40
2018-08-04T18:54:03.727Z,32.40
2018-08-04T18:56:33.026Z,32.40
2018-08-04T18:59:02.495Z,32.30
2018-08-04T19:01:31.799Z,32.30
2018-08-04T19:04:01.131Z,32.30
2018-08-04T19:06:30.379Z,32.10
2018-08-04T19:08:59.667Z,31.90
2018-08-04T19:11:28.971Z,31.70
2018-08-04T19:13:58.267Z,31.80
2018-08-04T19:16:27.534Z,31.70
2018-08-04T19:18:56.837Z,31.60
2018-08-04T19:21:26.095Z,31.40
2018-08-04T19:23:57.534Z,31.40
2018-08-04T19:26:37.880Z,31.20
2018-08-04T19:29:07.269Z,31.20
2018-08-04T19:31:36.625Z,30.90
2018-08-04T19:34:05.892Z,30.90
2018-08-04T19:36:35.384Z,30.80
2018-08-04T19:39:06.481Z,30.70
2018-08-04T19:41:35.804Z,30.60
2018-08-04T19:44:05.307Z,30.40
2018-08-04T19:46:34.653Z,30.30
2018-08-04T19:49:04.039Z,30.20
2018-08-04T19:51:33.359Z,30.00
2018-08-04T19:54:02.668Z,29.90
2018-08-04T20:05:19.003Z,29.30
2018-08-04T20:07:48.358Z,29.40
2018-08-04T20:10:17.734Z,29.40
2018-08-04T20:12:46.942Z,29.40
2018-08-04T20:18:09.395Z,29.30
2018-08-04T20:20:38.798Z,29.40
2018-08-04T20:23:08.094Z,29.30
2018-08-04T20:25:37.419Z,29.30
2018-08-04T20:28:06.672Z,29.30
2018-08-04T20:30:35.951Z,29.30
2018-08-04T20:33:05.229Z,29.30
2018-08-04T20:35:34.643Z,29.20
2018-08-04T20:38:04.066Z,29.10
2018-08-04T20:43:48.318Z,28.80
2018-08-04T20:46:17.735Z,28.80
2018-08-04T20:48:46.967Z,28.80
2018-08-04T20:51:16.487Z,28.70
2018-08-04T20:56:15.719Z,28.60
2018-08-04T20:58:44.879Z,28.40
2018-08-04T21:01:54.187Z,28.30
2018-08-04T21:04:23.543Z,28.30
2018-08-04T21:06:52.774Z,28.20
2018-08-04T21:09:22.139Z,28.00
2018-08-04T21:11:53.398Z,28.00
2018-08-04T21:14:23.940Z,27.90
2018-08-04T21:16:54.121Z,27.80
2018-08-04T21:19:24.370Z,27.80
2018-08-04T21:21:53.789Z,27.70
2018-08-04T21:24:24.182Z,27.70
2018-08-04T21:26:54.292Z,27.40
2018-08-04T21:29:23.969Z,27.30
2018-08-04T21:31:53.299Z,27.20
2018-08-04T21:34:22.636Z,27.20
2018-08-04T21:36:52.024Z,27.20
2018-08-04T21:39:21.429Z,27.10
2018-08-04T21:41:50.645Z,27.00
2018-08-04T21:44:19.899Z,27.00
2018-08-04T21:46:50.262Z,27.00
2018-08-04T21:49:20.073Z,27.10
2018-08-04T21:51:50.541Z,27.10
2018-08-04T21:54:20.355Z,27.10
2018-08-04T21:56:49.489Z,27.10
2018-08-04T21:59:18.752Z,27.10
2018-08-04T22:01:53.224Z,27.00
2018-08-04T22:04:32.336Z,27.00
2018-08-04T22:08:11.364Z,27.00
2018-08-04T22:10:40.686Z,26.90
2018-08-04T22:13:10.019Z,26.90
2018-08-04T22:15:39.360Z,26.80
2018-08-04T22:18:08.689Z,26.70
2018-08-04T22:20:37.903Z,26.50
2018-08-04T22:23:07.242Z,26.40
2018-08-04T22:25:36.474Z,26.40
2018-08-04T22:28:06.018Z,26.30
2018-08-04T22:30:35.290Z,26.20
2018-08-04T22:33:04.567Z,26.10
2018-08-04T22:35:33.835Z,26.10
2018-08-04T22:38:03.086Z,26.00
2018-08-04T22:40:32.354Z,25.90
2018-08-04T22:43:01.612Z,25.90
2018-08-04T22:45:54.823Z,25.90
2018-08-04T22:48:24.134Z,25.80
2018-08-04T22:50:53.353Z,25.80
2018-08-04T22:53:22.581Z,25.80
2018-08-04T22:55:51.827Z,25.80
2018-08-04T22:58:21.222Z,25.70
2018-08-04T23:00:50.466Z,25.60
2018-08-04T23:03:19.687Z,25.60
2018-08-04T23:05:48.891Z,25.60
2018-08-04T23:08:18.157Z,25.60
2018-08-04T23:10:47.442Z,25.50
2018-08-04T23:13:17.145Z,25.50
2018-08-04T23:15:46.479Z,25.40
2018-08-04T23:18:15.791Z,25.30
2018-08-04T23:20:45.067Z,25.20
2018-08-04T23:23:14.851Z,25.10
2018-08-04T23:25:44.155Z,25.10
2018-08-04T23:28:13.449Z,25.00
2018-08-04T23:30:42.587Z,25.10
2018-08-04T23:33:11.633Z,25.00
2018-08-04T23:35:40.713Z,24.90
2018-08-04T23:38:09.786Z,24.90
2018-08-04T23:40:38.829Z,24.80
2018-08-04T23:43:07.950Z,24.60
2018-08-04T23:45:36.991Z,24.50
2018-08-04T23:48:06.037Z,24.50
2018-08-04T23:50:35.062Z,24.50
2018-08-04T23:53:04.196Z,24.40
2018-08-04T23:55:33.243Z,24.30
2018-08-04T23:58:02.271Z,24.30
